createdAt,value
2018-01-04T00:02:15.033Z,21.42
2018-01-04T00:04:42.532Z,35.13
2018-01-04T00:07:10.521Z,27.15
2018-01-04T00:09:38.933Z,33.65
2018-01-04T00:12:06.813Z,33.03
2018-01-04T00:14:34.305Z,25.75
2018-01-04T00:17:02.209Z,27.77
2018-01-04T00:19:30.181Z,32.28
2018-01-04T00:21:57.704Z,25.88
2018-01-04T00:24:25.240Z,30.45
2018-01-04T00:26:52.750Z,28.20
2018-01-04T00:29:20.632Z,35.53
2018-01-04T00:31:48.533Z,21.12
2018-01-04T00:34:16.507Z,31.52
2018-01-04T00:36:44.019Z,33.40
2018-01-04T00:39:11.524Z,29.75
2018-01-04T00:41:39.017Z,22.80
2018-01-04T00:44:06.500Z,26.73
2018-01-04T00:46:33.999Z,33.85
2018-01-04T00:49:01.505Z,26.35
2018-01-04T00:51:29.032Z,29.25
2018-01-04T00:53:56.513Z,27.50
2018-01-04T00:56:24.028Z,22.80
2018-01-04T00:58:51.515Z,26.40
2018-01-04T01:01:19.009Z,29.17
2018-01-04T01:03:46.503Z,25.83
2018-01-04T01:06:14.230Z,39.53
2018-01-04T01:08:41.731Z,26.95
2018-01-04T01:11:09.284Z,28.27
2018-01-04T01:13:37.189Z,31.65
2018-01-04T01:16:04.677Z,33.58
2018-01-04T01:18:32.180Z,27.90
2018-01-04T01:20:59.675Z,35.70
2018-01-04T01:23:27.284Z,31.85
2018-01-04T01:25:54.759Z,35.28
2018-01-04T01:28:22.261Z,37.85
2018-01-04T01:30:49.752Z,30.42
2018-01-04T01:33:17.728Z,34.45
2018-01-04T01:35:45.313Z,24.60
2018-01-04T01:38:12.812Z,36.38
2018-01-04T01:40:40.692Z,29.45
2018-01-04T01:43:08.632Z,32.78
2018-01-04T01:45:36.121Z,38.17
2018-01-04T01:48:03.614Z,33.80
2018-01-04T01:50:31.117Z,31.80
2018-01-04T01:52:58.613Z,24.70
2018-01-04T01:55:26.197Z,31.48
2018-01-04T01:57:53.680Z,28.05
2018-01-04T02:00:21.255Z,26.45
2018-01-04T02:02:48.743Z,39.35
2018-01-04T02:05:16.364Z,27.75
2018-01-04T02:07:44.323Z,33.53
2018-01-04T02:10:11.924Z,30.20
2018-01-04T02:12:39.805Z,33.47
2018-01-04T02:15:07.316Z,25.75
2018-01-04T02:17:35.202Z,23.05
2018-01-04T02:20:15.082Z,36.00
2018-01-04T02:25:51.373Z,32.35
2018-01-04T02:28:30.961Z,36.20
2018-01-04T02:31:10.312Z,33.45
2018-01-04T02:33:49.704Z,36.30
2018-01-04T02:36:29.669Z,27.77
2018-01-04T02:39:09.025Z,29.83
2018-01-04T02:41:48.691Z,27.15
2018-01-04T02:44:28.056Z,32.40
2018-01-04T02:46:55.557Z,28.17
2018-01-04T02:49:23.137Z,33.53
2018-01-04T02:51:50.712Z,28.55
2018-01-04T02:54:18.198Z,36.20
2018-01-04T02:56:45.775Z,33.30
2018-01-04T02:59:13.368Z,26.00
2018-01-04T03:01:40.958Z,30.17
2018-01-04T03:04:08.536Z,28.73
2018-01-04T03:06:36.021Z,36.17
2018-01-04T03:09:03.520Z,39.42
2018-01-04T03:11:31.501Z,27.92
2018-01-04T03:13:58.991Z,31.00
2018-01-04T03:16:26.570Z,26.87
2018-01-04T03:18:54.073Z,30.48
2018-01-04T03:21:21.976Z,31.00
2018-01-04T03:23:49.485Z,34.03
2018-01-04T03:26:22.507Z,32.80
2018-01-04T03:28:55.668Z,43.83
2018-01-04T03:31:28.782Z,49.92
2018-01-04T03:34:02.356Z,41.50
2018-01-04T03:36:35.426Z,31.58
2018-01-04T03:39:08.912Z,31.08
2018-01-04T03:41:42.095Z,28.75
2018-01-04T03:44:15.324Z,30.08
2018-01-04T03:46:48.416Z,33.05
2018-01-04T03:49:21.909Z,31.12
2018-01-04T03:51:55.027Z,39.35
2018-01-04T03:54:28.212Z,31.70
2018-01-04T03:57:01.422Z,30.02
2018-01-04T03:59:34.535Z,31.30
2018-01-04T04:02:07.772Z,42.50
2018-01-04T04:04:40.884Z,37.28
2018-01-04T04:07:14.076Z,30.67
2018-01-04T04:09:41.567Z,43.50
2018-01-04T04:12:09.062Z,37.92
2018-01-04T04:14:36.580Z,39.17
2018-01-04T04:17:04.052Z,27.02
2018-01-04T04:19:31.553Z,28.20
2018-01-04T04:21:59.052Z,27.95
2018-01-04T04:24:27.024Z,27.80
2018-01-04T04:26:54.523Z,36.70
2018-01-04T04:29:22.412Z,29.52
2018-01-04T04:31:50.386Z,30.92
2018-01-04T04:34:17.869Z,33.72
2018-01-04T04:36:45.465Z,26.77
2018-01-04T04:39:12.948Z,32.20
2018-01-04T04:41:40.477Z,37.03
2018-01-04T04:44:07.966Z,38.65
2018-01-04T04:46:35.492Z,30.45
2018-01-04T04:49:02.978Z,38.30
2018-01-04T04:51:30.558Z,34.03
2018-01-04T04:53:58.060Z,36.28
2018-01-04T04:56:26.036Z,38.28
2018-01-04T04:58:53.623Z,45.65
2018-01-04T05:01:21.212Z,37.90
2018-01-04T05:03:48.712Z,37.28
2018-01-04T05:06:16.583Z,42.30
2018-01-04T05:08:44.089Z,34.42
2018-01-04T05:11:11.978Z,46.15
2018-01-04T05:13:39.955Z,33.13
2018-01-04T05:16:07.535Z,34.85
2018-01-04T05:18:35.037Z,36.38
2018-01-04T05:21:02.916Z,30.23
2018-01-04T05:23:30.437Z,29.70
2018-01-04T05:25:57.921Z,34.80
2018-01-04T05:28:25.405Z,34.33
2018-01-04T05:30:52.948Z,35.65
2018-01-04T05:33:20.523Z,38.42
2018-01-04T05:35:48.117Z,37.80
2018-01-04T05:38:15.697Z,40.70
2018-01-04T05:40:43.195Z,22.02
2018-01-04T05:43:11.072Z,35.53
2018-01-04T05:45:38.657Z,38.88
2018-01-04T05:48:06.146Z,31.52
2018-01-04T05:50:33.641Z,40.45
2018-01-04T05:53:01.521Z,25.50
2018-01-04T05:55:29.036Z,35.65
2018-01-04T05:57:56.507Z,30.15
2018-01-04T06:00:24.385Z,29.70
2018-01-04T06:02:51.888Z,34.95
2018-01-04T06:05:19.392Z,27.85
2018-01-04T06:07:46.896Z,22.60
2018-01-04T06:10:14.371Z,25.42
2018-01-04T06:12:41.876Z,30.75
2018-01-04T06:15:09.352Z,25.50
2018-01-04T06:17:36.849Z,28.35
2018-01-04T06:20:04.336Z,27.00
2018-01-04T06:22:31.915Z,31.30
2018-01-04T06:24:59.509Z,34.88
2018-01-04T06:27:27.097Z,29.92
2018-01-04T06:29:54.704Z,30.83
2018-01-04T06:32:22.612Z,29.70
2018-01-04T06:34:50.096Z,25.25
2018-01-04T06:37:17.577Z,29.08
2018-01-04T06:39:45.083Z,32.08
2018-01-04T06:42:12.567Z,23.00
2018-01-04T06:44:40.089Z,30.17
2018-01-04T06:47:07.572Z,35.63
2018-01-04T06:49:35.063Z,23.98
2018-01-04T06:52:02.657Z,33.53
2018-01-04T06:54:30.556Z,25.17
2018-01-04T06:56:58.515Z,34.47
2018-01-04T06:59:26.113Z,28.98
2018-01-04T07:01:53.696Z,21.60
2018-01-04T07:04:21.285Z,26.98
2018-01-04T07:06:48.759Z,24.75
2018-01-04T07:09:16.277Z,25.75
2018-01-04T07:11:43.851Z,21.75
2018-01-04T07:14:11.819Z,21.52
2018-01-04T07:16:39.404Z,25.17
2018-01-04T07:19:06.887Z,29.52
2018-01-04T07:21:34.379Z,28.80
2018-01-04T07:24:01.956Z,37.15
2018-01-04T07:26:29.456Z,27.10
2018-01-04T07:28:57.340Z,26.58
2018-01-04T07:31:24.851Z,24.75
2018-01-04T07:33:52.729Z,22.65
2018-01-04T07:36:20.641Z,36.03
2018-01-04T07:38:49.860Z,40.25
2018-01-04T07:41:17.351Z,26.60
2018-01-04T07:43:44.883Z,26.52
2018-01-04T07:46:12.401Z,29.25
2018-01-04T07:48:40.285Z,18.15
2018-01-04T07:51:08.171Z,24.33
2018-01-04T07:53:36.068Z,23.12
2018-01-04T07:56:03.946Z,25.60
2018-01-04T07:58:31.519Z,28.92
2018-01-04T08:00:59.000Z,31.45
2018-01-04T08:03:26.509Z,27.10
2018-01-04T08:05:54.388Z,23.48
2018-01-04T08:08:21.967Z,20.48
2018-01-04T08:10:49.465Z,22.27
2018-01-04T08:13:17.360Z,24.60
2018-01-04T08:15:45.364Z,16.48
2018-01-04T08:18:13.264Z,27.60
2018-01-04T08:20:41.146Z,28.00
2018-01-04T08:23:09.123Z,25.52
2018-01-04T08:25:36.604Z,22.85
2018-01-04T08:28:04.089Z,24.85
2018-01-04T08:30:31.589Z,23.60
2018-01-04T08:32:59.073Z,22.98
2018-01-04T08:35:27.055Z,31.48
2018-01-04T08:37:54.633Z,33.15
2018-01-04T08:40:22.259Z,24.67
2018-01-04T08:42:49.740Z,26.35
2018-01-04T08:45:17.285Z,29.20
2018-01-04T08:47:44.873Z,30.50
2018-01-04T08:50:12.447Z,25.00
2018-01-04T08:52:40.451Z,22.02
2018-01-04T08:55:08.033Z,22.77
2018-01-04T08:57:35.745Z,30.98
2018-01-04T09:00:03.630Z,21.10
2018-01-04T09:02:31.556Z,18.98
2018-01-04T09:04:59.031Z,21.95
2018-01-04T09:07:26.598Z,14.20
2018-01-04T09:09:54.568Z,23.98
2018-01-04T09:12:22.158Z,15.00
2018-01-04T09:14:49.742Z,14.85
2018-01-04T09:17:17.316Z,15.63
2018-01-04T09:19:44.800Z,17.92
2018-01-04T09:22:12.379Z,10.82
2018-01-04T09:24:39.869Z,10.73
2018-01-04T09:27:07.381Z,15.05
2018-01-04T09:29:35.253Z,12.50
2018-01-04T09:32:02.832Z,9.48
2018-01-04T09:34:30.420Z,16.10
2018-01-04T09:36:58.004Z,13.35
2018-01-04T09:39:25.501Z,14.40
2018-01-04T09:41:53.376Z,6.87
2018-01-04T09:44:20.959Z,15.57
2018-01-04T09:46:48.468Z,7.53
2018-01-04T09:49:16.385Z,10.13
2018-01-04T09:51:43.921Z,15.35
2018-01-04T09:54:11.496Z,10.02
2018-01-04T09:56:38.971Z,13.05
2018-01-04T09:59:06.449Z,9.40
2018-01-04T10:01:34.066Z,5.85
2018-01-04T10:04:01.563Z,8.40
2018-01-04T10:06:29.464Z,10.63
2018-01-04T10:08:57.428Z,11.12
2018-01-04T10:11:24.948Z,9.25
2018-01-04T10:13:52.497Z,11.75
2018-01-04T10:16:20.010Z,13.05
2018-01-04T10:18:47.484Z,17.05
2018-01-04T10:21:15.462Z,8.25
2018-01-04T10:23:43.054Z,12.45
2018-01-04T10:26:10.957Z,11.85
2018-01-04T10:28:38.848Z,16.17
2018-01-04T10:31:06.824Z,19.98
2018-01-04T10:33:34.405Z,7.65
2018-01-04T10:36:01.994Z,8.75
2018-01-04T10:38:29.495Z,12.05
2018-01-04T10:40:57.385Z,15.85
2018-01-04T10:43:25.360Z,11.90
2018-01-04T10:45:52.872Z,10.98
2018-01-04T10:48:20.376Z,8.88
2018-01-04T10:50:47.908Z,13.02
2018-01-04T10:53:16.026Z,14.75
2018-01-04T10:55:43.906Z,13.25
2018-01-04T10:58:11.417Z,13.07
2018-01-04T11:00:38.923Z,14.32
2018-01-04T11:03:06.400Z,8.25
2018-01-04T11:05:33.927Z,12.77
2018-01-04T11:08:01.440Z,8.27
2018-01-04T11:10:29.408Z,7.82
2018-01-04T11:12:56.997Z,9.95
2018-01-04T11:15:24.513Z,13.15
2018-01-04T11:17:51.997Z,9.77
2018-01-04T11:20:19.500Z,10.65
2018-01-04T11:22:47.048Z,6.40
2018-01-04T11:25:14.936Z,7.62
2018-01-04T11:27:42.812Z,6.75
2018-01-04T11:30:10.398Z,7.22
2018-01-04T11:32:37.876Z,6.15
2018-01-04T11:35:05.451Z,6.65
2018-01-04T11:37:32.968Z,8.80
2018-01-04T11:40:00.869Z,11.30
2018-01-04T11:42:28.347Z,6.93
2018-01-04T11:44:56.252Z,10.05
2018-01-04T11:47:23.800Z,9.52
2018-01-04T11:49:51.308Z,8.95
2018-01-04T11:52:18.881Z,5.70
2018-01-04T11:54:46.780Z,6.70
2018-01-04T11:57:14.749Z,7.68
2018-01-04T11:59:42.238Z,10.93
2018-01-04T12:02:09.816Z,7.68
2018-01-04T12:04:37.289Z,8.25
2018-01-04T12:07:04.920Z,7.45
2018-01-04T12:09:32.424Z,4.50
2018-01-04T12:11:59.924Z,3.53
2018-01-04T12:14:27.411Z,5.35
2018-01-04T12:16:54.908Z,3.97
2018-01-04T12:19:22.430Z,4.75
2018-01-04T12:21:49.924Z,3.03
2018-01-04T12:24:17.477Z,3.12
2018-01-04T12:26:45.006Z,2.35
2018-01-04T12:29:12.489Z,2.03
2018-01-04T12:31:39.995Z,2.80
2018-01-04T12:34:07.481Z,7.18
2018-01-04T12:36:35.075Z,2.93
2018-01-04T12:39:02.556Z,4.97
2018-01-04T12:41:30.053Z,3.55
2018-01-04T12:43:57.527Z,2.00
2018-01-04T12:46:25.058Z,1.37
2018-01-04T12:48:52.554Z,1.75
2018-01-04T12:51:20.072Z,2.65
2018-01-04T12:53:47.565Z,3.08
2018-01-04T12:56:15.060Z,4.80
2018-01-04T12:58:43.860Z,3.12
2018-01-04T13:01:11.442Z,4.55
2018-01-04T13:03:38.937Z,6.12
2018-01-04T13:06:06.517Z,2.40
2018-01-04T13:08:33.988Z,2.53
2018-01-04T13:11:01.484Z,2.20
2018-01-04T13:13:28.964Z,3.95
2018-01-04T13:15:56.451Z,2.55
2018-01-04T13:18:23.932Z,3.90
2018-01-04T13:20:51.413Z,2.42
2018-01-04T13:23:19.012Z,1.67
2018-01-04T13:25:46.893Z,2.15
2018-01-04T13:28:14.398Z,2.28
2018-01-04T13:30:42.369Z,5.45
2018-01-04T13:33:09.881Z,1.92
2018-01-04T13:35:37.759Z,2.80
2018-01-04T13:38:05.660Z,2.62
2018-01-04T13:40:33.540Z,3.25
2018-01-04T13:43:01.048Z,2.50
2018-01-04T13:45:28.601Z,2.62
2018-01-04T13:47:56.113Z,2.90
2018-01-04T13:50:23.595Z,2.05
2018-01-04T13:52:51.100Z,2.10
2018-01-04T13:55:18.581Z,1.67
2018-01-04T13:57:46.081Z,1.45
2018-01-04T14:00:13.551Z,1.40
2018-01-04T14:02:41.069Z,1.17
2018-01-04T14:05:08.560Z,1.20
2018-01-04T14:07:36.132Z,1.02
2018-01-04T14:10:03.616Z,1.90
2018-01-04T14:12:31.116Z,1.77
2018-01-04T14:14:58.596Z,2.20
2018-01-04T14:17:26.100Z,2.47
2018-01-04T14:19:53.590Z,3.15
2018-01-04T14:22:21.088Z,2.78
2018-01-04T14:24:48.572Z,1.92
2018-01-04T14:27:16.159Z,2.45
2018-01-04T14:29:43.693Z,2.10
2018-01-04T14:32:11.193Z,2.78
2018-01-04T14:34:39.073Z,4.57
2018-01-04T14:37:06.568Z,3.28
2018-01-04T14:39:34.460Z,3.40
2018-01-04T14:42:02.449Z,5.60
2018-01-04T14:44:29.932Z,4.20
2018-01-04T14:46:57.809Z,3.83
2018-01-04T14:49:25.400Z,5.10
2018-01-04T14:51:52.986Z,5.80
2018-01-04T14:54:20.881Z,7.87
2018-01-04T14:56:48.763Z,9.75
2018-01-04T14:59:16.348Z,11.40
2018-01-04T15:01:43.831Z,23.62
2018-01-04T15:04:11.406Z,16.75
2018-01-04T15:06:38.919Z,18.73
2018-01-04T15:09:06.410Z,21.75
2018-01-04T15:11:34.299Z,20.40
2018-01-04T15:14:02.191Z,24.37
2018-01-04T15:16:30.063Z,20.65
2018-01-04T15:18:57.653Z,22.42
2018-01-04T15:21:25.233Z,22.98
2018-01-04T15:23:52.765Z,24.30
2018-01-04T15:26:20.283Z,18.83
2018-01-04T15:28:47.871Z,17.67
2018-01-04T15:31:15.361Z,15.38
2018-01-04T15:33:42.932Z,21.60
2018-01-04T15:36:10.424Z,15.43
2018-01-04T15:38:37.937Z,17.08
2018-01-04T15:41:05.824Z,22.77
2018-01-04T15:43:33.806Z,23.25
2018-01-04T15:46:01.715Z,19.95
2018-01-04T15:48:29.631Z,17.45
2018-01-04T15:50:57.116Z,14.87
2018-01-04T15:53:24.641Z,19.83
2018-01-04T15:55:52.128Z,35.92
2018-01-04T15:58:19.637Z,21.40
2018-01-04T16:00:47.518Z,49.97
2018-01-04T16:03:15.019Z,27.92
2018-01-04T16:05:42.975Z,16.55
2018-01-04T16:08:10.532Z,25.95
2018-01-04T16:10:38.059Z,18.45
2018-01-04T16:13:05.547Z,14.30
2018-01-04T16:15:33.058Z,14.90
2018-01-04T16:18:00.543Z,10.82
2018-01-04T16:20:28.052Z,16.15
2018-01-04T16:22:55.551Z,12.30
2018-01-04T16:25:23.060Z,18.48
2018-01-04T16:27:50.781Z,15.35
2018-01-04T16:30:18.297Z,25.37
2018-01-04T16:32:45.877Z,13.80
2018-01-04T16:35:13.501Z,12.35
2018-01-04T16:37:41.033Z,17.77
2018-01-04T16:40:08.540Z,11.45
2018-01-04T16:42:36.212Z,13.55
2018-01-04T16:45:03.740Z,13.73
2018-01-04T16:47:31.476Z,8.38
2018-01-04T16:49:59.013Z,14.70
2018-01-04T16:52:27.147Z,15.38
2018-01-04T16:54:54.673Z,13.98
2018-01-04T16:57:22.227Z,11.55
2018-01-04T16:59:49.771Z,17.30
2018-01-04T17:02:17.745Z,15.40
2018-01-04T17:04:45.247Z,13.82
2018-01-04T17:07:13.192Z,26.87
2018-01-04T17:09:40.809Z,16.52
2018-01-04T17:12:08.351Z,18.02
2018-01-04T17:14:35.879Z,18.15
2018-01-04T17:17:03.474Z,17.92
2018-01-04T17:19:31.413Z,20.45
2018-01-04T17:21:59.107Z,20.27
2018-01-04T17:24:26.621Z,18.52
2018-01-04T17:26:54.588Z,22.42
2018-01-04T17:29:22.091Z,24.08
2018-01-04T17:31:49.651Z,13.07
2018-01-04T17:34:17.173Z,19.12
2018-01-04T17:36:44.735Z,23.55
2018-01-04T17:39:12.219Z,19.58
2018-01-04T17:41:39.898Z,27.13
2018-01-04T17:44:07.388Z,17.87
2018-01-04T17:46:35.049Z,23.35
2018-01-04T17:49:02.549Z,25.00
2018-01-04T17:51:30.190Z,18.75
2018-01-04T17:53:57.764Z,23.38
2018-01-04T17:56:25.793Z,23.67
2018-01-04T17:58:53.293Z,15.30
2018-01-04T18:01:20.942Z,19.25
2018-01-04T18:03:48.425Z,26.98
2018-01-04T18:06:16.005Z,31.17
2018-01-04T18:08:43.672Z,21.40
2018-01-04T18:11:11.381Z,29.33
2018-01-04T18:13:38.920Z,27.77
2018-01-04T18:16:06.435Z,21.15
2018-01-04T18:18:34.319Z,19.70
2018-01-04T18:21:01.844Z,26.15
2018-01-04T18:23:29.359Z,32.97
2018-01-04T18:25:56.977Z,27.52
2018-01-04T18:28:24.549Z,28.90
2018-01-04T18:30:52.065Z,22.60
2018-01-04T18:33:19.657Z,27.27
2018-01-04T18:35:47.170Z,26.77
2018-01-04T18:38:14.684Z,27.98
2018-01-04T18:40:42.197Z,27.65
2018-01-04T18:43:10.172Z,19.02
2018-01-04T18:45:37.753Z,26.62
2018-01-04T18:48:05.257Z,30.60
2018-01-04T18:50:34.085Z,34.17
2018-01-04T18:53:01.642Z,22.67
2018-01-04T18:55:29.245Z,35.17
2018-01-04T18:57:57.165Z,25.58
2018-01-04T19:00:24.647Z,19.92
2018-01-04T19:02:52.185Z,25.37
2018-01-04T19:05:20.072Z,32.10
2018-01-04T19:07:47.665Z,29.80
2018-01-04T19:10:15.573Z,31.08
2018-01-04T19:12:43.539Z,29.92
2018-01-04T19:15:11.044Z,25.17
2018-01-04T19:17:38.951Z,27.60
2018-01-04T19:20:06.494Z,25.65
2018-01-04T19:22:33.984Z,21.87
2018-01-04T19:25:01.597Z,23.30
2018-01-04T19:27:29.504Z,32.15
2018-01-04T19:29:56.993Z,32.53
2018-01-04T19:32:24.536Z,32.58
2018-01-04T19:34:52.041Z,34.47
2018-01-04T19:37:19.572Z,27.27
2018-01-04T19:39:47.116Z,34.05
2018-01-04T19:42:14.691Z,24.48
2018-01-04T19:44:42.649Z,28.92
2018-01-04T19:47:10.253Z,36.42
2018-01-04T19:49:37.902Z,25.35
2018-01-04T19:52:05.521Z,30.20
2018-01-04T19:54:33.003Z,42.80
2018-01-04T19:57:00.576Z,25.17
2018-01-04T19:59:28.059Z,32.22
2018-01-04T20:01:55.647Z,37.47
2018-01-04T20:04:23.246Z,37.28
2018-01-04T20:06:50.751Z,32.42
2018-01-04T20:09:18.634Z,27.60
2018-01-04T20:11:46.590Z,28.77
2018-01-04T20:14:14.028Z,27.75
2018-01-04T20:16:41.576Z,25.00
2018-01-04T20:19:09.076Z,28.30
2018-01-04T20:21:37.044Z,27.70
2018-01-04T20:24:04.604Z,25.15
2018-01-04T20:26:32.111Z,20.12
2018-01-04T20:28:59.615Z,27.13
2018-01-04T20:31:27.096Z,16.50
2018-01-04T20:33:54.685Z,17.30
2018-01-04T20:36:22.669Z,16.62
2018-01-04T20:38:50.178Z,25.77
2018-01-04T20:41:17.668Z,25.55
2018-01-04T20:43:45.177Z,13.93
2018-01-04T20:46:12.669Z,13.40
2018-01-04T20:48:40.280Z,22.25
2018-01-04T20:51:07.880Z,13.27
2018-01-04T20:53:35.380Z,13.02
2018-01-04T20:56:02.944Z,22.80
2018-01-04T20:58:30.528Z,17.08
2018-01-04T21:00:58.021Z,16.87
2018-01-04T21:03:25.909Z,11.43
2018-01-04T21:05:53.487Z,15.63
2018-01-04T21:08:20.993Z,16.15
2018-01-04T21:10:48.553Z,17.27
2018-01-04T21:13:16.139Z,15.65
2018-01-04T21:15:43.614Z,20.05
2018-01-04T21:18:11.112Z,10.30
2018-01-04T21:20:39.092Z,21.17
2018-01-04T21:23:06.604Z,13.82
2018-01-04T21:25:34.092Z,13.80
2018-01-04T21:28:01.613Z,18.48
2018-01-04T21:30:29.102Z,18.60
2018-01-04T21:32:56.607Z,19.65
2018-01-04T21:35:24.108Z,19.33
2018-01-04T21:37:51.989Z,18.45
2018-01-04T21:40:19.502Z,14.20
2018-01-04T21:42:46.985Z,12.57
2018-01-04T21:45:14.532Z,11.60
2018-01-04T21:47:42.111Z,15.07
2018-01-04T21:50:09.604Z,9.18
2018-01-04T21:52:37.088Z,22.85
2018-01-04T21:55:04.664Z,15.15
2018-01-04T21:57:32.149Z,19.92
2018-01-04T21:59:59.695Z,15.75
2018-01-04T22:02:27.220Z,16.27
2018-01-04T22:04:54.709Z,13.18
2018-01-04T22:07:22.203Z,20.83
2018-01-04T22:09:50.082Z,15.48
2018-01-04T22:12:17.660Z,19.85
2018-01-04T22:14:45.145Z,18.02
2018-01-04T22:17:13.657Z,16.95
2018-01-04T22:19:41.131Z,10.20
2018-01-04T22:22:08.657Z,12.37
2018-01-04T22:24:36.144Z,9.00
2018-01-04T22:27:03.742Z,17.48
2018-01-04T22:29:31.583Z,12.88
2018-01-04T22:31:59.064Z,16.15
2018-01-04T22:34:26.568Z,15.40
2018-01-04T22:36:54.443Z,10.45
2018-01-04T22:39:21.945Z,16.33
2018-01-04T22:41:49.825Z,14.52
2018-01-04T22:44:17.828Z,15.30
2018-01-04T22:46:45.703Z,17.12
2018-01-04T22:49:13.306Z,15.57
2018-01-04T22:51:41.281Z,13.18
2018-01-04T22:54:08.866Z,18.25
2018-01-04T22:56:36.352Z,12.15
2018-01-04T22:59:03.937Z,8.60
2018-01-04T23:01:31.414Z,18.42
2018-01-04T23:03:58.999Z,17.87
2018-01-04T23:06:26.481Z,11.30
2018-01-04T23:08:53.965Z,18.35
2018-01-04T23:11:21.464Z,15.18
2018-01-04T23:13:49.559Z,14.45
2018-01-04T23:16:17.527Z,12.70
2018-01-04T23:18:45.021Z,11.45
2018-01-04T23:21:12.514Z,10.80
2018-01-04T23:23:39.996Z,11.35
2018-01-04T23:26:07.500Z,13.07
2018-01-04T23:28:35.371Z,16.30
2018-01-04T23:31:02.899Z,12.35
2018-01-04T23:33:30.408Z,11.75
2018-01-04T23:35:57.917Z,11.32
2018-01-04T23:38:25.417Z,9.38
2018-01-04T23:40:53.296Z,11.05
2018-01-04T23:43:20.872Z,8.18
2018-01-04T23:45:48.357Z,8.30
2018-01-04T23:48:15.857Z,8.73
2018-01-04T23:50:43.737Z,13.45
2018-01-04T23:53:11.317Z,10.27
2018-01-04T23:55:38.801Z,5.80
2018-01-04T23:58:06.390Z,16.45
